createdAt,value
2018-07-04T00:04:58.544Z,18.23
2018-07-04T00:10:13.316Z,18.12
2018-07-04T00:15:28.098Z,17.98
2018-07-04T00:20:43.004Z,17.91
2018-07-04T00:25:57.664Z,17.84
2018-07-04T00:31:12.613Z,17.74
2018-07-04T00:36:27.628Z,17.67
2018-07-04T00:41:42.413Z,17.60
2018-07-04T00:46:57.364Z,17.48
2018-07-04T00:52:12.142Z,17.23
2018-07-04T00:57:26.921Z,17.15
2018-07-04T01:02:41.682Z,17.15
2018-07-04T01:07:56.554Z,17.03
2018-07-04T01:13:12.394Z,17.03
2018-07-04T01:18:27.357Z,16.95
2018-07-04T01:23:42.173Z,16.65
2018-07-04T01:28:57.416Z,16.62
2018-07-04T01:34:12.213Z,16.63
2018-07-04T01:39:27.049Z,16.46
2018-07-04T01:44:42.014Z,16.49
2018-07-04T01:49:56.961Z,16.43
2018-07-04T01:55:13.397Z,16.41
2018-07-04T02:00:28.706Z,16.30
2018-07-04T02:05:43.567Z,16.31
2018-07-04T02:10:58.292Z,16.25
2018-07-04T02:16:13.162Z,16.09
2018-07-04T02:21:27.841Z,15.54
2018-07-04T02:26:42.775Z,15.69
2018-07-04T02:31:57.660Z,15.78
2018-07-04T02:37:12.433Z,15.41
2018-07-04T02:42:27.386Z,15.43
2018-07-04T02:47:42.287Z,15.60
2018-07-04T02:52:57.045Z,15.31
2018-07-04T02:58:11.912Z,15.38
2018-07-04T03:03:27.009Z,15.46
2018-07-04T03:08:41.914Z,15.14
2018-07-04T03:13:56.821Z,15.31
2018-07-04T03:19:11.536Z,15.51
2018-07-04T03:24:26.376Z,15.58
2018-07-04T03:29:41.513Z,15.49
2018-07-04T03:34:56.172Z,15.65
2018-07-04T03:40:11.669Z,15.80
2018-07-04T03:45:26.497Z,15.54
2018-07-04T03:50:41.240Z,15.94
2018-07-04T03:55:55.855Z,16.50
2018-07-04T04:01:10.700Z,16.57
2018-07-04T04:06:25.670Z,17.07
2018-07-04T04:11:40.588Z,17.22
2018-07-04T04:16:55.425Z,17.54
2018-07-04T04:22:10.081Z,16.97
2018-07-04T04:27:24.981Z,16.22
2018-07-04T04:32:39.637Z,16.04
2018-07-04T04:37:54.374Z,16.57
2018-07-04T04:43:09.045Z,16.96
2018-07-04T04:48:24.047Z,17.01
2018-07-04T04:53:38.844Z,17.32
2018-07-04T04:58:53.883Z,18.11
2018-07-04T05:04:08.759Z,20.13
2018-07-04T05:09:24.478Z,20.72
2018-07-04T05:14:39.928Z,20.84
2018-07-04T05:19:54.791Z,20.50
2018-07-04T05:25:09.660Z,20.07
2018-07-04T05:30:32.128Z,19.02
2018-07-04T05:35:46.901Z,18.82
2018-07-04T05:41:01.590Z,18.48
2018-07-04T05:46:16.479Z,18.80
2018-07-04T05:51:31.916Z,19.19
2018-07-04T05:56:46.696Z,19.44
2018-07-04T06:02:02.206Z,19.76
2018-07-04T06:07:17.109Z,19.51
2018-07-04T06:12:31.775Z,19.53
2018-07-04T06:17:46.547Z,19.80
2018-07-04T06:23:02.434Z,20.13
2018-07-04T06:28:17.105Z,20.12
2018-07-04T06:33:32.071Z,20.46
2018-07-04T06:38:35.634Z,20.69
2018-07-04T06:43:40.010Z,20.54
2018-07-04T06:48:42.405Z,20.66
2018-07-04T06:53:44.966Z,21.19
2018-07-04T06:58:47.255Z,21.58
2018-07-04T07:04:01.989Z,21.93
2018-07-04T07:09:16.790Z,22.11
2018-07-04T07:14:31.974Z,22.11
2018-07-04T07:19:46.753Z,22.44
2018-07-04T07:25:01.486Z,22.68
2018-07-04T07:30:24.025Z,23.11
2018-07-04T07:35:38.775Z,23.10
2018-07-04T07:40:53.680Z,23.79
2018-07-04T07:46:08.498Z,23.80
2018-07-04T07:51:23.419Z,24.16
2018-07-04T07:56:38.380Z,24.57
2018-07-04T08:01:53.132Z,24.66
2018-07-04T08:07:07.814Z,24.66
2018-07-04T08:12:22.780Z,24.86
2018-07-04T08:17:37.577Z,25.29
2018-07-04T08:22:52.590Z,25.69
2018-07-04T08:28:07.358Z,26.51
2018-07-04T08:33:22.860Z,26.93
2018-07-04T08:38:37.733Z,26.20
2018-07-04T08:43:53.051Z,27.00
2018-07-04T08:49:07.684Z,26.91
2018-07-04T08:54:22.852Z,26.86
2018-07-04T08:59:37.650Z,26.77
2018-07-04T09:04:52.273Z,27.23
2018-07-04T09:10:07.150Z,26.89
2018-07-04T09:15:21.929Z,27.73
2018-07-04T09:20:36.594Z,27.91
2018-07-04T09:25:52.482Z,27.40
2018-07-04T09:31:07.176Z,26.99
2018-07-04T09:36:21.937Z,26.35
2018-07-04T09:41:36.833Z,26.37
2018-07-04T09:46:51.477Z,27.01
2018-07-04T09:52:06.379Z,26.99
2018-07-04T09:57:21.456Z,27.00
2018-07-04T10:02:36.333Z,27.07
2018-07-04T10:07:51.262Z,27.71
2018-07-04T10:13:06.115Z,28.09
2018-07-04T10:18:20.781Z,28.66
2018-07-04T10:23:35.466Z,28.87
2018-07-04T10:28:50.220Z,28.85
2018-07-04T10:34:05.313Z,29.06
2018-07-04T10:39:21.041Z,29.21
2018-07-04T10:44:36.089Z,28.84
2018-07-04T10:49:50.747Z,28.60
2018-07-04T10:55:05.669Z,29.16
2018-07-04T11:00:26.815Z,29.76
2018-07-04T11:05:41.528Z,29.99
2018-07-04T11:10:56.214Z,30.03
2018-07-04T11:16:10.864Z,30.14
2018-07-04T11:21:25.657Z,30.14
2018-07-04T11:26:40.368Z,29.99
2018-07-04T11:31:55.083Z,29.84
2018-07-04T11:37:10.516Z,29.93
2018-07-04T11:42:25.911Z,30.28
2018-07-04T11:47:28.785Z,30.46
2018-07-04T11:52:31.687Z,30.43
2018-07-04T11:57:33.988Z,30.85
2018-07-04T12:02:37.232Z,31.49
2018-07-04T12:07:39.822Z,31.96
2018-07-04T12:12:42.627Z,31.71
2018-07-04T12:17:44.926Z,31.78
2018-07-04T12:22:47.248Z,31.44
2018-07-04T12:27:49.553Z,31.31
2018-07-04T12:32:51.886Z,31.33
2018-07-04T12:37:54.206Z,31.52
2018-07-04T12:42:56.587Z,31.35
2018-07-04T12:47:59.470Z,31.44
2018-07-04T12:53:01.818Z,31.60
2018-07-04T12:58:17.799Z,31.46
2018-07-04T13:03:32.686Z,31.34
2018-07-04T13:08:48.596Z,31.48
2018-07-04T13:14:04.259Z,31.08
2018-07-04T13:19:19.073Z,31.05
2018-07-04T13:24:34.168Z,30.89
2018-07-04T13:29:48.901Z,30.78
2018-07-04T13:35:03.714Z,31.27
2018-07-04T13:40:18.681Z,31.35
2018-07-04T13:45:34.457Z,31.88
2018-07-04T13:50:49.104Z,32.29
2018-07-04T13:56:03.831Z,31.71
2018-07-04T14:01:18.803Z,32.16
2018-07-04T14:06:33.575Z,32.52
2018-07-04T14:11:49.401Z,32.45
2018-07-04T14:17:04.141Z,32.34
2018-07-04T14:22:18.951Z,32.28
2018-07-04T14:27:33.797Z,32.33
2018-07-04T14:32:48.637Z,32.79
2018-07-04T14:38:03.468Z,32.60
2018-07-04T14:43:18.103Z,32.35
2018-07-04T14:48:33.701Z,31.98
2018-07-04T14:53:48.757Z,31.79
2018-07-04T14:59:03.600Z,31.65
2018-07-04T15:04:18.323Z,31.22
2018-07-04T15:09:34.612Z,31.19
2018-07-04T15:14:49.929Z,31.81
2018-07-04T15:20:04.820Z,31.72
2018-07-04T15:25:20.522Z,31.29
2018-07-04T15:30:35.433Z,30.33
2018-07-04T15:35:50.175Z,30.30
2018-07-04T15:41:04.772Z,30.01
2018-07-04T15:46:19.681Z,29.82
2018-07-04T15:51:34.459Z,29.63
2018-07-04T15:56:49.120Z,29.56
2018-07-04T16:02:04.005Z,29.38
2018-07-04T16:07:19.050Z,29.33
2018-07-04T16:12:33.810Z,29.28
2018-07-04T16:17:49.496Z,29.16
2018-07-04T16:23:04.207Z,29.14
2018-07-04T16:28:19.033Z,29.16
2018-07-04T16:33:33.670Z,29.29
2018-07-04T16:38:48.404Z,29.17
2018-07-04T16:44:03.130Z,29.05
2018-07-04T16:49:17.928Z,29.07
2018-07-04T16:54:32.733Z,28.98
2018-07-04T16:59:47.342Z,29.03
2018-07-04T17:05:03.035Z,29.02
2018-07-04T17:10:18.437Z,28.96
2018-07-04T17:15:33.103Z,29.00
2018-07-04T17:20:48.073Z,29.27
2018-07-04T17:26:02.891Z,29.44
2018-07-04T17:31:17.877Z,29.45
2018-07-04T17:36:32.712Z,29.46
2018-07-04T17:41:47.457Z,29.49
2018-07-04T17:47:02.934Z,29.72
2018-07-04T17:52:17.805Z,29.79
2018-07-04T17:57:32.791Z,29.77
2018-07-04T18:02:47.551Z,29.65
2018-07-04T18:08:02.380Z,29.29
2018-07-04T18:13:18.488Z,28.91
2018-07-04T18:18:33.418Z,28.60
2018-07-04T18:23:48.072Z,28.36
2018-07-04T18:29:03.003Z,28.12
2018-07-04T18:34:17.974Z,28.12
2018-07-04T18:39:32.754Z,28.33
2018-07-04T18:44:47.470Z,28.18
2018-07-04T18:50:02.341Z,28.06
2018-07-04T18:55:17.043Z,27.90
2018-07-04T19:00:38.572Z,27.52
2018-07-04T19:05:53.151Z,27.09
2018-07-04T19:11:08.238Z,26.69
2018-07-04T19:16:23.454Z,26.49
2018-07-04T19:21:38.139Z,26.26
2018-07-04T19:26:53.925Z,25.98
2018-07-04T19:32:08.541Z,25.75
2018-07-04T19:37:24.485Z,25.59
2018-07-04T19:42:42.993Z,25.40
2018-07-04T19:47:58.278Z,25.23
2018-07-04T19:53:13.127Z,25.11
2018-07-04T19:58:27.833Z,24.94
2018-07-04T20:03:42.539Z,24.78
2018-07-04T20:08:57.485Z,24.70
2018-07-04T20:14:12.736Z,24.53
2018-07-04T20:19:27.695Z,24.42
2018-07-04T20:24:42.631Z,24.32
2018-07-04T20:29:57.369Z,24.11
2018-07-04T20:35:12.613Z,24.22
2018-07-04T20:40:28.039Z,24.34
2018-07-04T20:45:42.922Z,24.21
2018-07-04T20:50:58.772Z,24.05
2018-07-04T20:56:13.656Z,23.87
2018-07-04T21:01:28.799Z,23.78
2018-07-04T21:06:43.439Z,23.54
2018-07-04T21:11:58.190Z,23.56
2018-07-04T21:17:12.844Z,23.33
2018-07-04T21:22:27.570Z,23.24
2018-07-04T21:27:42.264Z,23.15
2018-07-04T21:32:57.155Z,22.99
2018-07-04T21:38:11.941Z,22.94
2018-07-04T21:43:26.584Z,22.88
2018-07-04T21:48:41.514Z,22.68
2018-07-04T21:53:56.239Z,22.44
2018-07-04T21:59:11.075Z,22.37
2018-07-04T22:04:26.795Z,22.29
2018-07-04T22:09:41.704Z,22.28
2018-07-04T22:14:56.362Z,22.29
2018-07-04T22:20:11.335Z,22.23
2018-07-04T22:25:26.530Z,22.24
2018-07-04T22:30:41.503Z,22.21
2018-07-04T22:35:56.329Z,22.08
2018-07-04T22:41:11.248Z,22.08
2018-07-04T22:46:25.872Z,21.93
2018-07-04T22:51:40.714Z,21.84
2018-07-04T22:56:55.384Z,21.75
2018-07-04T23:02:10.371Z,21.69
2018-07-04T23:07:25.085Z,21.61
2018-07-04T23:12:40.029Z,21.62
2018-07-04T23:17:54.823Z,21.58
2018-07-04T23:23:10.856Z,21.47
2018-07-04T23:28:25.641Z,21.45
2018-07-04T23:33:40.409Z,21.40
2018-07-04T23:38:55.319Z,21.31
2018-07-04T23:44:10.285Z,21.22
2018-07-04T23:49:25.034Z,21.08
2018-07-04T23:54:40.440Z,21.02
2018-07-04T23:59:55.219Z,20.93
